createdAt,value
2022-09-09T00:02:24.644Z,89.24
2022-09-09T00:05:13.920Z,89.18
2022-09-09T00:07:43.428Z,89.57
2022-09-09T00:10:22.178Z,89.48
2022-09-09T00:13:15.119Z,89.14
2022-09-09T00:15:54.315Z,89.02
2022-09-09T00:18:26.773Z,89.49
2022-09-09T00:21:03.901Z,89.38
2022-09-09T00:23:33.881Z,89.46
2022-09-09T00:26:28.909Z,89.15
2022-09-09T00:29:10.885Z,89.01
2022-09-09T00:31:38.230Z,89.05
2022-09-09T00:34:15.273Z,88.37
2022-09-09T00:36:44.607Z,88.92
2022-09-09T00:39:24.171Z,87.75
2022-09-09T00:42:03.521Z,88.05
2022-09-09T00:44:36.357Z,86.91
2022-09-09T00:47:44.371Z,88.23
2022-09-09T00:50:30.822Z,88.49
2022-09-09T00:53:13.124Z,89.74
2022-09-09T00:56:01.396Z,89.40
2022-09-09T00:58:28.888Z,89.37
2022-09-09T01:01:07.685Z,88.13
2022-09-09T01:03:40.336Z,88.62
2022-09-09T01:06:39.414Z,88.51
2022-09-09T01:09:56.548Z,88.82
2022-09-09T01:12:42.935Z,89.42
2022-09-09T01:15:13.818Z,89.72
2022-09-09T01:17:52.455Z,90.01
2022-09-09T01:20:25.149Z,89.78
2022-09-09T01:23:00.784Z,88.86
2022-09-09T01:25:44.324Z,88.87
2022-09-09T01:28:28.839Z,88.25
2022-09-09T01:30:57.473Z,88.75
2022-09-09T01:33:24.267Z,88.71
2022-09-09T01:35:56.491Z,88.68
2022-09-09T01:38:24.963Z,88.54
2022-09-09T01:40:53.231Z,88.01
2022-09-09T01:43:22.460Z,87.63
2022-09-09T01:45:52.153Z,88.24
2022-09-09T01:48:19.927Z,88.21
2022-09-09T01:50:46.331Z,88.20
2022-09-09T01:53:14.535Z,88.36
2022-09-09T01:55:46.948Z,88.27
2022-09-09T01:58:29.566Z,88.30
2022-09-09T02:01:34.346Z,87.78
2022-09-09T02:04:08.102Z,88.02
2022-09-09T02:06:39.716Z,88.49
2022-09-09T02:09:10.988Z,88.67
2022-09-09T02:11:37.991Z,87.94
2022-09-09T02:14:13.281Z,88.33
2022-09-09T02:16:44.327Z,87.59
2022-09-09T02:19:33.023Z,87.84
2022-09-09T02:22:01.665Z,88.10
2022-09-09T02:24:32.597Z,88.50
2022-09-09T02:27:01.558Z,88.60
2022-09-09T02:29:43.660Z,87.51
2022-09-09T02:32:16.526Z,88.81
2022-09-09T02:34:49.953Z,88.03
2022-09-09T02:37:20.220Z,87.06
2022-09-09T02:39:47.768Z,88.27
2022-09-09T02:42:15.852Z,89.11
2022-09-09T02:44:43.001Z,88.74
2022-09-09T02:47:15.329Z,88.38
2022-09-09T02:49:50.981Z,88.46
2022-09-09T02:52:27.896Z,88.24
2022-09-09T02:55:05.223Z,88.31
2022-09-09T02:57:33.884Z,89.28
2022-09-09T03:00:04.019Z,89.21
2022-09-09T03:02:31.265Z,89.28
2022-09-09T03:04:57.747Z,89.86
2022-09-09T03:07:24.466Z,90.24
2022-09-09T03:09:50.947Z,89.33
2022-09-09T03:12:17.445Z,89.00
2022-09-09T03:14:46.400Z,89.35
2022-09-09T03:17:12.855Z,88.53
2022-09-09T03:19:40.860Z,88.87
2022-09-09T03:22:07.672Z,88.46
2022-09-09T03:24:34.104Z,88.54
2022-09-09T03:27:00.515Z,88.78
2022-09-09T03:29:26.963Z,87.83
2022-09-09T03:31:53.537Z,88.02
2022-09-09T03:34:20.026Z,88.52
2022-09-09T03:36:47.199Z,88.82
2022-09-09T03:39:13.629Z,88.19
2022-09-09T03:41:40.172Z,87.69
2022-09-09T03:44:07.159Z,87.38
2022-09-09T03:46:34.785Z,86.71
2022-09-09T03:49:02.479Z,86.80
2022-09-09T03:51:28.902Z,87.73
2022-09-09T03:53:59.069Z,87.94
2022-09-09T03:56:25.642Z,87.35
2022-09-09T03:58:52.076Z,88.46
2022-09-09T04:01:18.942Z,88.52
2022-09-09T04:03:48.324Z,89.11
2022-09-09T04:06:15.996Z,88.33
2022-09-09T04:08:42.725Z,89.43
2022-09-09T04:11:09.630Z,88.28
2022-09-09T04:13:41.212Z,88.83
2022-09-09T04:16:10.297Z,90.24
2022-09-09T04:18:37.069Z,90.36
2022-09-09T04:21:05.491Z,90.11
2022-09-09T04:23:31.929Z,90.79
2022-09-09T04:25:59.876Z,91.30
2022-09-09T04:28:28.756Z,91.36
2022-09-09T04:30:55.305Z,92.00
2022-09-09T04:33:22.056Z,91.71
2022-09-09T04:35:50.804Z,91.86
2022-09-09T04:38:18.188Z,92.52
2022-09-09T04:40:47.735Z,92.10
2022-09-09T04:43:15.706Z,92.63
2022-09-09T04:45:48.211Z,92.78
2022-09-09T04:48:14.850Z,92.76
2022-09-09T04:50:41.602Z,92.26
2022-09-09T04:53:08.538Z,92.43
2022-09-09T04:55:36.003Z,92.83
2022-09-09T04:58:06.966Z,93.07
2022-09-09T05:00:34.882Z,92.44
2022-09-09T05:03:05.094Z,91.27
2022-09-09T05:05:31.816Z,91.76
2022-09-09T05:08:05.580Z,90.80
2022-09-09T05:10:32.775Z,92.80
2022-09-09T05:12:59.150Z,94.01
2022-09-09T05:15:32.950Z,94.25
2022-09-09T05:18:01.526Z,95.90
2022-09-09T05:20:29.016Z,96.87
2022-09-09T05:22:56.190Z,95.76
2022-09-09T05:25:23.173Z,95.99
2022-09-09T05:27:50.509Z,94.13
2022-09-09T05:30:17.693Z,93.09
2022-09-09T05:32:44.360Z,94.95
2022-09-09T05:35:10.986Z,92.51
2022-09-09T05:37:37.437Z,93.10
2022-09-09T05:40:04.464Z,91.63
2022-09-09T05:42:33.402Z,91.63
2022-09-09T05:44:59.852Z,90.93
2022-09-09T05:47:28.610Z,91.03
2022-09-09T05:49:56.238Z,90.78
2022-09-09T05:52:24.303Z,90.33
2022-09-09T05:54:51.313Z,91.04
2022-09-09T05:57:18.168Z,90.50
2022-09-09T05:59:44.565Z,90.70
2022-09-09T06:02:11.117Z,89.89
2022-09-09T06:04:37.835Z,88.76
2022-09-09T06:07:05.075Z,88.10
2022-09-09T06:09:31.566Z,86.95
2022-09-09T06:11:59.145Z,86.39
2022-09-09T06:14:26.433Z,86.03
2022-09-09T06:16:52.876Z,85.79
2022-09-09T06:19:19.558Z,85.66
2022-09-09T06:21:52.167Z,85.47
2022-09-09T06:24:20.365Z,84.85
2022-09-09T06:26:46.744Z,85.17
2022-09-09T06:29:13.217Z,84.20
2022-09-09T06:31:39.718Z,84.30
2022-09-09T06:34:08.868Z,84.42
2022-09-09T06:36:37.921Z,84.60
2022-09-09T06:39:14.834Z,84.58
2022-09-09T06:41:44.034Z,84.55
2022-09-09T06:44:12.668Z,85.02
2022-09-09T06:46:44.379Z,84.68
2022-09-09T06:49:12.939Z,84.24
2022-09-09T06:51:43.959Z,83.42
2022-09-09T06:54:12.316Z,82.64
2022-09-09T06:56:42.838Z,83.70
2022-09-09T06:59:10.230Z,83.45
2022-09-09T07:01:39.113Z,82.81
2022-09-09T07:04:08.592Z,83.31
2022-09-09T07:06:44.144Z,82.66
2022-09-09T07:09:13.459Z,82.93
2022-09-09T07:11:47.066Z,82.86
2022-09-09T07:14:14.905Z,81.93
2022-09-09T07:16:47.024Z,77.26
2022-09-09T07:19:15.276Z,77.56
2022-09-09T07:21:44.652Z,76.76
2022-09-09T07:24:13.661Z,77.14
2022-09-09T07:26:41.134Z,77.10
2022-09-09T07:29:19.873Z,76.66
2022-09-09T07:31:47.319Z,76.69
2022-09-09T07:34:14.014Z,76.71
2022-09-09T07:36:41.325Z,75.08
2022-09-09T07:39:18.034Z,76.21
2022-09-09T07:41:48.987Z,76.27
2022-09-09T07:44:24.305Z,75.88
2022-09-09T07:46:51.345Z,75.38
2022-09-09T07:49:29.646Z,75.04
2022-09-09T07:51:58.995Z,76.24
2022-09-09T07:54:29.453Z,75.97
2022-09-09T07:56:56.017Z,75.01
2022-09-09T07:59:22.483Z,74.11
2022-09-09T08:01:55.564Z,73.10
2022-09-09T08:04:26.095Z,73.10
2022-09-09T08:06:55.822Z,71.54
2022-09-09T08:09:25.968Z,71.17
2022-09-09T08:11:52.445Z,71.99
2022-09-09T08:14:19.011Z,70.60
2022-09-09T08:17:15.807Z,68.80
2022-09-09T08:19:42.201Z,69.28
2022-09-09T08:22:09.471Z,69.64
2022-09-09T08:24:35.905Z,69.90
2022-09-09T08:27:02.402Z,70.16
2022-09-09T08:29:29.557Z,70.30
2022-09-09T08:32:03.304Z,70.40
2022-09-09T08:34:31.396Z,70.51
2022-09-09T08:36:57.936Z,71.43
2022-09-09T08:39:31.296Z,72.11
2022-09-09T08:42:10.272Z,70.97
2022-09-09T08:44:51.890Z,70.71
2022-09-09T08:47:58.124Z,71.85
2022-09-09T08:50:36.319Z,71.35
2022-09-09T08:53:11.624Z,72.94
2022-09-09T08:55:47.087Z,74.24
2022-09-09T08:58:18.734Z,76.05
2022-09-09T09:00:48.179Z,78.45
2022-09-09T09:03:31.379Z,80.82
2022-09-09T09:06:11.671Z,82.60
2022-09-09T09:09:07.569Z,81.08
2022-09-09T09:11:45.783Z,81.21
2022-09-09T09:14:25.362Z,81.66
2022-09-09T09:16:57.376Z,82.15
2022-09-09T09:19:33.180Z,83.61
2022-09-09T09:22:08.117Z,84.70
2022-09-09T09:24:54.528Z,84.87
2022-09-09T09:27:35.917Z,87.56
2022-09-09T09:30:28.547Z,88.69
2022-09-09T09:33:02.480Z,91.08
2022-09-09T09:35:28.902Z,89.91
2022-09-09T09:40:58.660Z,88.17
2022-09-09T09:43:27.623Z,88.46
2022-09-09T09:46:16.369Z,88.85
2022-09-09T09:48:41.503Z,88.79
2022-09-09T09:51:13.385Z,87.98
2022-09-09T09:53:40.564Z,89.57
2022-09-09T09:56:13.843Z,89.22
2022-09-09T09:58:57.491Z,89.77
2022-09-09T10:01:33.379Z,89.47
2022-09-09T10:04:21.622Z,88.19
2022-09-09T10:06:48.459Z,86.79
2022-09-09T10:09:25.591Z,87.03
2022-09-09T10:12:05.651Z,83.78
2022-09-09T10:14:46.817Z,83.26
2022-09-09T10:17:31.326Z,85.97
2022-09-09T10:20:40.596Z,82.89
2022-09-09T10:23:29.975Z,83.53
2022-09-09T10:26:18.980Z,82.80
2022-09-09T10:29:11.082Z,82.06
2022-09-09T10:32:05.966Z,76.00
2022-09-09T10:34:58.654Z,78.39
2022-09-09T10:37:46.230Z,81.29
2022-09-09T10:40:28.019Z,79.81
2022-09-09T10:43:10.651Z,77.49
2022-09-09T10:46:01.487Z,75.91
2022-09-09T10:48:32.690Z,74.11
2022-09-09T10:51:22.767Z,75.08
2022-09-09T10:54:07.890Z,75.86
2022-09-09T10:56:35.722Z,76.67
2022-09-09T10:59:19.018Z,73.64
2022-09-09T11:01:56.970Z,72.92
2022-09-09T11:04:28.017Z,74.20
2022-09-09T11:06:58.022Z,71.39
2022-09-09T11:09:29.647Z,74.61
2022-09-09T11:12:03.672Z,74.29
2022-09-09T11:14:43.064Z,77.91
2022-09-09T11:17:31.434Z,77.76
2022-09-09T11:19:58.450Z,77.69
2022-09-09T11:22:47.684Z,77.22
2022-09-09T11:25:34.544Z,77.76
2022-09-09T11:28:27.802Z,77.46
2022-09-09T11:30:57.024Z,75.49
2022-09-09T11:33:58.548Z,78.13
2022-09-09T11:36:39.674Z,77.37
2022-09-09T11:39:37.005Z,77.03
2022-09-09T11:42:25.054Z,75.66
2022-09-09T11:45:31.190Z,74.57
2022-09-09T11:48:35.838Z,74.79
2022-09-09T11:51:05.969Z,75.47
2022-09-09T11:53:33.400Z,77.10
2022-09-09T11:56:14.476Z,78.22
2022-09-09T11:58:44.648Z,76.39
2022-09-09T12:01:30.932Z,76.24
2022-09-09T12:04:19.856Z,74.97
2022-09-09T12:06:55.433Z,76.75
2022-09-09T12:09:27.009Z,76.12
2022-09-09T12:11:53.830Z,76.82
2022-09-09T12:14:23.713Z,76.18
2022-09-09T12:16:50.931Z,75.37
2022-09-09T12:19:26.268Z,71.60
2022-09-09T12:22:39.308Z,70.60
2022-09-09T12:25:24.618Z,68.99
2022-09-09T12:28:22.494Z,71.75
2022-09-09T12:31:05.938Z,73.52
2022-09-09T12:33:44.281Z,73.57
2022-09-09T12:36:28.406Z,73.74
2022-09-09T12:38:57.893Z,74.24
2022-09-09T12:41:26.897Z,73.86
2022-09-09T12:44:09.766Z,72.43
2022-09-09T12:46:46.423Z,73.27
2022-09-09T12:49:37.328Z,73.07
2022-09-09T12:52:27.843Z,72.64
2022-09-09T12:54:57.984Z,73.16
2022-09-09T12:57:27.103Z,73.65
2022-09-09T13:00:18.097Z,72.53
2022-09-09T13:02:54.209Z,72.48
2022-09-09T13:05:26.324Z,74.15
2022-09-09T13:08:08.388Z,76.55
2022-09-09T13:11:00.209Z,73.76
2022-09-09T13:13:38.779Z,75.43
2022-09-09T13:16:09.378Z,74.97
2022-09-09T13:18:41.074Z,74.53
2022-09-09T13:21:07.687Z,74.63
2022-09-09T13:23:37.133Z,73.76
2022-09-09T13:26:39.470Z,73.54
2022-09-09T13:29:18.867Z,77.85
2022-09-09T13:31:53.519Z,76.21
2022-09-09T13:34:30.207Z,77.20
2022-09-09T13:37:28.514Z,79.04
2022-09-09T13:39:55.945Z,78.18
2022-09-09T13:42:32.502Z,76.85
2022-09-09T13:45:00.961Z,80.16
2022-09-09T13:47:35.245Z,75.53
2022-09-09T13:50:22.569Z,75.35
2022-09-09T13:52:59.179Z,75.78
2022-09-09T13:55:30.770Z,75.98
2022-09-09T13:58:17.882Z,70.88
2022-09-09T14:00:47.493Z,71.85
2022-09-09T14:03:17.557Z,70.04
2022-09-09T14:05:46.016Z,70.92
2022-09-09T14:08:38.092Z,69.57
2022-09-09T14:11:15.189Z,68.83
2022-09-09T14:13:50.879Z,69.35
2022-09-09T14:16:19.657Z,71.69
2022-09-09T14:18:53.138Z,70.19
2022-09-09T14:21:27.058Z,71.13
2022-09-09T14:23:55.905Z,67.38
2022-09-09T14:26:27.192Z,67.61
2022-09-09T14:29:05.893Z,68.37
2022-09-09T14:31:32.304Z,64.73
2022-09-09T14:34:04.998Z,67.11
2022-09-09T14:36:33.432Z,66.10
2022-09-09T14:39:01.864Z,62.47
2022-09-09T14:41:42.565Z,63.33
2022-09-09T14:44:09.988Z,61.63
2022-09-09T14:46:43.804Z,62.27
2022-09-09T14:49:19.548Z,62.75
2022-09-09T14:51:45.914Z,60.72
2022-09-09T14:54:12.918Z,61.82
2022-09-09T14:56:39.377Z,62.54
2022-09-09T14:59:05.849Z,61.61
2022-09-09T15:01:33.567Z,61.85
2022-09-09T15:04:02.154Z,61.45
2022-09-09T15:06:34.502Z,60.28
2022-09-09T15:09:08.322Z,59.84
2022-09-09T15:11:38.755Z,61.39
2022-09-09T15:14:13.489Z,58.70
2022-09-09T15:16:42.202Z,58.84
2022-09-09T15:19:10.214Z,56.95
2022-09-09T15:21:47.003Z,56.40
2022-09-09T15:24:17.066Z,57.17
2022-09-09T15:26:48.565Z,57.07
2022-09-09T15:29:14.983Z,57.21
2022-09-09T15:31:41.408Z,60.68
2022-09-09T15:34:08.765Z,61.92
2022-09-09T15:36:43.878Z,62.39
2022-09-09T15:39:13.778Z,64.57
2022-09-09T15:41:46.439Z,62.80
2022-09-09T15:44:13.232Z,63.49
2022-09-09T15:46:42.857Z,62.37
2022-09-09T15:49:11.527Z,62.50
2022-09-09T15:51:43.270Z,61.67
2022-09-09T15:54:13.127Z,62.57
2022-09-09T15:56:39.798Z,63.45
2022-09-09T15:59:06.195Z,62.19
2022-09-09T16:01:33.132Z,63.48
2022-09-09T16:04:13.520Z,64.07
2022-09-09T16:06:40.180Z,64.47
2022-09-09T16:09:08.093Z,65.64
2022-09-09T16:11:37.360Z,66.06
2022-09-09T16:14:05.004Z,64.49
2022-09-09T16:16:46.124Z,65.15
2022-09-09T16:19:13.890Z,64.29
2022-09-09T16:21:42.882Z,64.00
2022-09-09T16:24:11.627Z,64.87
2022-09-09T16:26:40.591Z,65.38
2022-09-09T16:29:07.075Z,65.96
2022-09-09T16:31:33.814Z,65.57
2022-09-09T16:34:00.447Z,65.69
2022-09-09T16:36:30.959Z,65.06
2022-09-09T16:38:59.540Z,65.81
2022-09-09T16:41:41.738Z,66.82
2022-09-09T16:44:10.582Z,67.36
2022-09-09T16:46:39.812Z,68.69
2022-09-09T16:49:12.369Z,67.96
2022-09-09T16:51:44.675Z,69.35
2022-09-09T16:54:12.102Z,69.94
2022-09-09T16:56:42.507Z,70.40
2022-09-09T16:59:21.645Z,68.41
2022-09-09T17:01:50.809Z,67.23
2022-09-09T17:04:21.783Z,69.16
2022-09-09T17:06:50.429Z,69.41
2022-09-09T17:09:17.509Z,68.93
2022-09-09T17:11:46.277Z,70.72
2022-09-09T17:14:17.393Z,71.65
2022-09-09T17:16:44.760Z,70.95
2022-09-09T17:19:12.614Z,69.93
2022-09-09T17:22:00.021Z,71.84
2022-09-09T17:24:30.398Z,73.09
2022-09-09T17:26:58.277Z,69.09
2022-09-09T17:29:25.691Z,67.97
2022-09-09T17:31:52.146Z,65.56
2022-09-09T17:34:18.510Z,67.04
2022-09-09T17:36:53.210Z,67.55
2022-09-09T17:39:19.869Z,69.23
2022-09-09T17:41:49.825Z,69.46
2022-09-09T17:44:16.705Z,70.30
2022-09-09T17:46:44.431Z,71.03
2022-09-09T17:49:13.395Z,71.37
2022-09-09T17:51:42.370Z,71.80
2022-09-09T17:54:13.059Z,71.96
2022-09-09T17:56:41.771Z,72.44
2022-09-09T17:59:10.283Z,72.50
2022-09-09T18:01:39.541Z,73.00
2022-09-09T18:04:08.075Z,72.97
2022-09-09T18:06:39.441Z,73.32
2022-09-09T18:09:09.064Z,74.14
2022-09-09T18:11:42.465Z,74.98
2022-09-09T18:14:11.167Z,74.99
2022-09-09T18:16:37.854Z,73.42
2022-09-09T18:19:06.740Z,74.41
2022-09-09T18:21:35.973Z,74.89
2022-09-09T18:24:06.635Z,75.15
2022-09-09T18:26:34.290Z,75.19
2022-09-09T18:29:04.259Z,74.39
2022-09-09T18:31:34.454Z,74.91
2022-09-09T18:34:11.797Z,74.83
2022-09-09T18:36:46.761Z,76.40
2022-09-09T18:39:17.396Z,77.37
2022-09-09T18:41:55.305Z,78.08
2022-09-09T18:44:26.664Z,77.95
2022-09-09T18:46:53.800Z,78.56
2022-09-09T18:49:26.943Z,76.37
2022-09-09T18:51:53.463Z,77.63
2022-09-09T18:54:30.310Z,77.10
2022-09-09T18:57:04.339Z,78.72
2022-09-09T18:59:31.222Z,78.82
2022-09-09T19:01:57.800Z,78.69
2022-09-09T19:04:27.200Z,79.22
2022-09-09T19:06:59.669Z,79.53
2022-09-09T19:09:29.542Z,79.62
2022-09-09T19:11:56.152Z,79.57
2022-09-09T19:14:22.644Z,78.72
2022-09-09T19:16:49.064Z,78.89
2022-09-09T19:19:19.203Z,78.92
2022-09-09T19:21:49.051Z,79.25
2022-09-09T19:24:19.873Z,79.83
2022-09-09T19:26:48.701Z,79.45
2022-09-09T19:29:21.911Z,79.36
2022-09-09T19:32:29.250Z,79.15
2022-09-09T19:34:39.455Z,78.37
2022-09-09T19:37:18.138Z,73.27
2022-09-09T19:39:47.434Z,77.88
2022-09-09T19:42:14.821Z,81.72
2022-09-09T19:44:41.539Z,84.11
2022-09-09T19:47:07.940Z,87.48
2022-09-09T19:49:36.917Z,90.76
2022-09-09T19:52:04.175Z,91.53
2022-09-09T19:54:30.531Z,91.89
2022-09-09T19:56:56.900Z,91.44
2022-09-09T19:59:23.323Z,91.42
2022-09-09T20:01:49.792Z,91.84
2022-09-09T20:04:17.748Z,92.83
2022-09-09T20:06:45.002Z,95.35
2022-09-09T20:09:16.907Z,96.45
2022-09-09T20:11:44.771Z,97.75
2022-09-09T20:14:11.990Z,99.31
2022-09-09T20:16:39.503Z,100.00
2022-09-09T20:19:10.191Z,100.00
2022-09-09T20:21:39.456Z,100.00
2022-09-09T20:24:11.065Z,100.00
2022-09-09T20:26:39.178Z,100.00
2022-09-09T20:29:15.291Z,100.00
2022-09-09T20:31:43.551Z,100.00
2022-09-09T20:34:18.806Z,100.00
2022-09-09T20:36:46.126Z,100.00
2022-09-09T20:39:15.258Z,100.00
2022-09-09T20:41:44.218Z,100.00
2022-09-09T20:44:16.084Z,100.00
2022-09-09T20:46:50.217Z,100.00
2022-09-09T20:49:20.379Z,100.00
2022-09-09T20:51:50.282Z,100.00
2022-09-09T20:54:19.872Z,100.00
2022-09-09T20:56:48.290Z,100.00
2022-09-09T20:59:17.838Z,100.00
2022-09-09T21:01:47.603Z,100.00
2022-09-09T21:04:15.931Z,100.00
2022-09-09T21:06:42.308Z,100.00
2022-09-09T21:09:09.211Z,100.00
2022-09-09T21:11:36.196Z,100.00
2022-09-09T21:14:03.493Z,100.00
2022-09-09T21:16:30.194Z,100.00
2022-09-09T21:18:58.554Z,100.00
2022-09-09T21:21:26.152Z,100.00
2022-09-09T21:23:58.289Z,100.00
2022-09-09T21:26:26.213Z,100.00
2022-09-09T21:28:53.645Z,100.00
2022-09-09T21:31:26.954Z,100.00
2022-09-09T21:33:54.042Z,100.00
2022-09-09T21:36:20.478Z,100.00
2022-09-09T21:38:46.866Z,100.00
2022-09-09T21:41:14.795Z,100.00
2022-09-09T21:43:42.087Z,100.00
2022-09-09T21:46:14.698Z,100.00
2022-09-09T21:48:41.386Z,100.00
2022-09-09T21:51:14.728Z,100.00
2022-09-09T21:53:41.400Z,100.00
2022-09-09T21:56:11.641Z,100.00
2022-09-09T21:58:58.274Z,100.00
2022-09-09T22:01:26.072Z,100.00
2022-09-09T22:03:52.672Z,100.00
2022-09-09T22:06:19.607Z,100.00
2022-09-09T22:08:46.737Z,100.00
2022-09-09T22:11:19.692Z,100.00
2022-09-09T22:13:46.165Z,100.00
2022-09-09T22:16:14.859Z,100.00
2022-09-09T22:18:42.007Z,100.00
2022-09-09T22:21:11.506Z,100.00
2022-09-09T22:23:38.074Z,100.00
2022-09-09T22:26:05.980Z,100.00
2022-09-09T22:28:33.730Z,100.00
2022-09-09T22:31:00.814Z,100.00
2022-09-09T22:33:28.010Z,100.00
2022-09-09T22:35:54.659Z,100.00
2022-09-09T22:38:22.243Z,100.00
2022-09-09T22:40:49.522Z,100.00
2022-09-09T22:43:19.640Z,97.32
2022-09-09T22:45:46.174Z,96.98
2022-09-09T22:48:14.399Z,96.97
2022-09-09T22:50:42.546Z,95.54
2022-09-09T22:53:17.223Z,96.02
2022-09-09T22:55:43.683Z,96.21
2022-09-09T22:58:10.354Z,95.93
2022-09-09T23:00:40.771Z,97.42
2022-09-09T23:03:07.852Z,96.42
2022-09-09T23:05:36.128Z,96.72
2022-09-09T23:08:02.571Z,98.07
2022-09-09T23:10:29.275Z,98.30
2022-09-09T23:12:56.572Z,98.46
2022-09-09T23:15:23.152Z,97.71
2022-09-09T23:17:52.047Z,98.29
2022-09-09T23:20:19.437Z,98.33
2022-09-09T23:22:45.823Z,99.14
2022-09-09T23:25:12.570Z,99.13
2022-09-09T23:27:38.990Z,99.58
2022-09-09T23:30:07.123Z,99.76
2022-09-09T23:32:33.787Z,98.48
2022-09-09T23:35:00.310Z,98.48
2022-09-09T23:37:48.594Z,98.51
2022-09-09T23:40:15.252Z,98.97
2022-09-09T23:42:41.606Z,98.52
2022-09-09T23:45:08.597Z,98.81
2022-09-09T23:47:34.945Z,99.25
2022-09-09T23:50:02.057Z,98.55
2022-09-09T23:52:28.426Z,97.40
2022-09-09T23:54:55.974Z,98.97
2022-09-09T23:57:22.338Z,99.92
2022-09-09T23:59:48.764Z,100.00
